createdAt,value
2023-05-22T00:01:56.780Z,47.42
2023-05-22T00:05:00.832Z,47.47
2023-05-22T00:08:04.871Z,47.53
2023-05-22T00:11:07.257Z,47.44
2023-05-22T00:14:09.766Z,47.36
2023-05-22T00:17:15.149Z,47.39
2023-05-22T00:20:17.594Z,47.64
2023-05-22T00:23:21.914Z,48.46
2023-05-22T00:26:24.381Z,48.36
2023-05-22T00:29:26.686Z,47.44
2023-05-22T00:32:29.132Z,48.12
2023-05-22T00:35:31.457Z,47.85
2023-05-22T00:38:35.181Z,48.03
2023-05-22T00:41:38.691Z,48.41
2023-05-22T00:44:41.910Z,48.62
2023-05-22T00:47:44.353Z,48.25
2023-05-22T00:50:46.713Z,48.00
2023-05-22T00:53:49.869Z,47.89
2023-05-22T00:56:52.250Z,47.82
2023-05-22T00:59:54.891Z,47.54
2023-05-22T01:02:57.298Z,47.59
2023-05-22T01:05:59.588Z,47.86
2023-05-22T01:09:02.085Z,47.90
2023-05-22T01:12:16.738Z,48.65
2023-05-22T01:15:29.555Z,48.82
2023-05-22T01:18:49.478Z,48.10
2023-05-22T01:22:05.548Z,47.60
2023-05-22T01:25:43.334Z,47.69
2023-05-22T01:29:09.217Z,47.37
2023-05-22T01:32:14.945Z,46.83
2023-05-22T01:35:18.866Z,46.98
2023-05-22T01:38:22.014Z,47.00
2023-05-22T01:41:24.670Z,47.05
2023-05-22T01:44:26.847Z,46.78
2023-05-22T01:47:31.548Z,46.82
2023-05-22T01:50:34.446Z,47.02
2023-05-22T01:54:03.338Z,47.21
2023-05-22T01:57:18.101Z,47.55
2023-05-22T02:00:22.503Z,47.74
2023-05-22T02:03:30.398Z,46.98
2023-05-22T02:06:33.484Z,46.57
2023-05-22T02:09:37.409Z,46.53
2023-05-22T02:12:39.794Z,46.74
2023-05-22T02:15:45.783Z,47.71
2023-05-22T02:18:48.377Z,47.18
2023-05-22T02:21:50.869Z,48.78
2023-05-22T02:24:53.179Z,49.14
2023-05-22T02:27:55.457Z,49.08
2023-05-22T02:30:57.837Z,48.80
2023-05-22T02:34:00.197Z,49.07
2023-05-22T02:37:05.362Z,48.74
2023-05-22T02:40:08.513Z,48.45
2023-05-22T02:43:10.831Z,48.19
2023-05-22T02:46:13.214Z,48.28
2023-05-22T02:49:16.132Z,48.48
2023-05-22T02:52:18.372Z,48.49
2023-05-22T02:55:21.023Z,48.28
2023-05-22T02:58:25.282Z,49.04
2023-05-22T03:01:30.584Z,49.40
2023-05-22T03:04:33.029Z,48.72
2023-05-22T03:07:35.334Z,49.81
2023-05-22T03:10:38.737Z,49.27
2023-05-22T03:13:41.112Z,49.45
2023-05-22T03:16:43.590Z,49.01
2023-05-22T03:19:45.947Z,49.06
2023-05-22T03:22:48.251Z,49.25
2023-05-22T03:25:51.256Z,49.67
2023-05-22T03:28:54.563Z,49.80
2023-05-22T03:31:57.281Z,49.43
2023-05-22T03:35:00.929Z,49.21
2023-05-22T03:38:03.395Z,49.27
2023-05-22T03:41:05.823Z,49.39
2023-05-22T03:44:08.094Z,49.44
2023-05-22T03:47:10.486Z,49.42
2023-05-22T03:50:12.824Z,49.35
2023-05-22T03:53:15.103Z,48.61
2023-05-22T03:56:17.378Z,49.21
2023-05-22T03:59:19.655Z,48.74
2023-05-22T04:02:22.236Z,48.00
2023-05-22T04:05:24.637Z,48.07
2023-05-22T04:08:27.030Z,47.74
2023-05-22T04:11:30.532Z,47.19
2023-05-22T04:14:33.171Z,46.82
2023-05-22T04:17:39.751Z,46.49
2023-05-22T04:20:42.846Z,46.40
2023-05-22T04:23:45.605Z,46.36
2023-05-22T04:26:47.939Z,46.40
2023-05-22T04:29:50.584Z,46.58
2023-05-22T04:32:52.799Z,46.30
2023-05-22T04:35:55.034Z,46.50
2023-05-22T04:38:57.304Z,46.67
2023-05-22T04:42:05.754Z,46.57
2023-05-22T04:45:09.902Z,46.56
2023-05-22T04:48:12.655Z,45.94
2023-05-22T04:51:15.106Z,45.66
2023-05-22T04:54:17.408Z,45.47
2023-05-22T04:57:21.312Z,44.79
2023-05-22T05:00:26.567Z,44.67
2023-05-22T05:03:29.083Z,44.36
2023-05-22T05:06:31.395Z,43.77
2023-05-22T05:09:33.764Z,44.15
2023-05-22T05:12:37.256Z,43.63
2023-05-22T05:15:39.602Z,43.77
2023-05-22T05:18:41.901Z,43.30
2023-05-22T05:21:44.479Z,43.20
2023-05-22T05:24:46.780Z,42.83
2023-05-22T05:27:49.057Z,42.38
2023-05-22T05:30:55.795Z,42.16
2023-05-22T05:34:23.977Z,41.23
2023-05-22T05:37:34.227Z,40.83
2023-05-22T05:40:38.032Z,39.50
2023-05-22T05:43:42.376Z,38.25
2023-05-22T05:46:46.286Z,38.19
2023-05-22T05:49:51.273Z,37.43
2023-05-22T05:52:54.922Z,38.33
2023-05-22T05:55:57.820Z,37.93
2023-05-22T05:59:01.014Z,37.40
2023-05-22T06:02:26.423Z,37.54
2023-05-22T06:05:32.115Z,37.83
2023-05-22T06:08:52.500Z,37.45
2023-05-22T06:12:01.746Z,36.95
2023-05-22T06:15:05.548Z,36.68
2023-05-22T06:18:08.525Z,36.22
2023-05-22T06:21:12.926Z,34.86
2023-05-22T06:24:15.608Z,34.18
2023-05-22T06:27:18.803Z,34.44
2023-05-22T06:30:38.396Z,32.91
2023-05-22T06:33:45.035Z,32.21
2023-05-22T06:36:50.590Z,32.86
2023-05-22T06:39:54.657Z,33.19
2023-05-22T06:43:08.411Z,29.31
2023-05-22T06:46:19.907Z,24.51
2023-05-22T06:49:29.454Z,21.91
2023-05-22T06:52:32.075Z,18.58
2023-05-22T06:55:35.096Z,17.20
2023-05-22T06:58:44.912Z,16.63
2023-05-22T07:01:47.421Z,18.61
2023-05-22T07:04:54.688Z,19.42
2023-05-22T07:08:04.452Z,18.36
2023-05-22T07:11:08.696Z,20.88
2023-05-22T07:14:12.637Z,22.06
2023-05-22T07:17:16.384Z,19.61
2023-05-22T07:20:20.777Z,21.34
2023-05-22T07:23:47.355Z,24.08
2023-05-22T07:26:49.629Z,24.69
2023-05-22T07:29:52.806Z,26.32
2023-05-22T07:32:56.530Z,25.96
2023-05-22T07:35:59.167Z,25.11
2023-05-22T07:39:01.747Z,25.95
2023-05-22T07:42:06.884Z,27.90
2023-05-22T07:45:14.503Z,29.46
2023-05-22T07:48:17.002Z,30.72
2023-05-22T07:51:20.701Z,32.48
2023-05-22T07:54:26.141Z,33.65
2023-05-22T07:57:29.766Z,33.95
2023-05-22T08:00:35.473Z,34.30
2023-05-22T08:03:37.959Z,35.17
2023-05-22T08:06:41.202Z,34.48
2023-05-22T08:09:46.143Z,34.29
2023-05-22T08:12:48.510Z,35.09
2023-05-22T08:15:50.804Z,35.01
2023-05-22T08:19:03.239Z,34.66
2023-05-22T08:22:05.819Z,32.48
2023-05-22T08:25:08.223Z,30.93
2023-05-22T08:28:10.455Z,30.82
2023-05-22T08:31:13.212Z,30.43
2023-05-22T08:34:15.605Z,30.27
2023-05-22T08:37:17.913Z,30.09
2023-05-22T08:40:20.745Z,29.46
2023-05-22T08:43:23.692Z,29.67
2023-05-22T08:46:30.118Z,30.20
2023-05-22T08:49:32.564Z,31.29
2023-05-22T08:52:48.365Z,32.75
2023-05-22T08:55:53.599Z,33.71
2023-05-22T08:58:56.271Z,33.47
2023-05-22T09:01:58.807Z,33.23
2023-05-22T09:05:02.181Z,33.45
2023-05-22T09:08:16.124Z,33.27
2023-05-22T09:11:22.690Z,32.13
2023-05-22T09:14:25.373Z,32.05
2023-05-22T09:17:27.708Z,32.54
2023-05-22T09:20:35.032Z,32.31
2023-05-22T09:23:37.986Z,31.67
2023-05-22T09:26:40.900Z,31.32
2023-05-22T09:29:49.741Z,31.74
2023-05-22T09:32:52.570Z,31.93
2023-05-22T09:35:55.078Z,32.68
2023-05-22T09:38:58.136Z,33.60
2023-05-22T09:42:01.502Z,33.00
2023-05-22T09:45:08.047Z,32.87
2023-05-22T09:48:10.507Z,33.03
2023-05-22T09:51:13.188Z,33.94
2023-05-22T09:54:16.183Z,33.30
2023-05-22T09:57:19.230Z,33.20
2023-05-22T10:00:23.492Z,33.32
2023-05-22T10:03:26.924Z,34.30
2023-05-22T10:06:31.534Z,34.15
2023-05-22T10:09:35.746Z,34.49
2023-05-22T10:12:43.384Z,34.09
2023-05-22T10:15:47.547Z,33.60
2023-05-22T10:22:22.587Z,34.21
2023-05-22T10:25:26.045Z,33.33
2023-05-22T10:28:48.222Z,33.58
2023-05-22T10:32:10.585Z,33.76
2023-05-22T10:35:30.594Z,33.66
2023-05-22T10:38:44.732Z,34.01
2023-05-22T10:41:47.303Z,33.20
2023-05-22T10:44:49.920Z,33.94
2023-05-22T10:48:05.577Z,34.24
2023-05-22T10:51:08.592Z,34.67
2023-05-22T10:54:10.930Z,34.71
2023-05-22T10:57:15.967Z,35.29
2023-05-22T11:00:19.502Z,34.69
2023-05-22T11:03:26.870Z,34.48
2023-05-22T11:06:38.993Z,34.11
2023-05-22T11:09:48.746Z,35.43
2023-05-22T11:13:03.949Z,35.90
2023-05-22T11:16:06.518Z,35.43
2023-05-22T11:19:22.565Z,33.86
2023-05-22T11:22:40.072Z,35.07
2023-05-22T11:25:42.575Z,35.30
2023-05-22T11:28:48.064Z,34.91
2023-05-22T11:31:50.445Z,35.83
2023-05-22T11:34:52.689Z,34.26
2023-05-22T11:37:56.188Z,34.09
2023-05-22T11:40:58.500Z,34.77
2023-05-22T11:44:01.605Z,33.59
2023-05-22T11:47:04.259Z,33.28
2023-05-22T11:50:09.848Z,32.75
2023-05-22T11:53:12.604Z,33.50
2023-05-22T11:56:15.366Z,32.69
2023-05-22T11:59:17.653Z,34.64
2023-05-22T12:02:20.139Z,34.29
2023-05-22T12:05:22.442Z,33.58
2023-05-22T12:08:25.611Z,33.41
2023-05-22T12:11:28.174Z,33.89
2023-05-22T12:14:31.621Z,33.05
2023-05-22T12:17:36.994Z,33.22
2023-05-22T12:20:43.518Z,33.90
2023-05-22T12:23:50.442Z,33.21
2023-05-22T12:26:53.627Z,33.25
2023-05-22T12:29:56.545Z,33.72
2023-05-22T12:32:59.148Z,33.76
2023-05-22T12:36:07.486Z,33.50
2023-05-22T12:39:11.170Z,33.74
2023-05-22T12:42:14.726Z,34.68
2023-05-22T12:45:18.110Z,34.02
2023-05-22T12:48:20.663Z,33.67
2023-05-22T12:51:24.214Z,34.02
2023-05-22T12:54:26.391Z,33.42
2023-05-22T12:57:28.639Z,33.67
2023-05-22T13:00:30.955Z,33.07
2023-05-22T13:03:33.290Z,34.14
2023-05-22T13:06:35.530Z,34.26
2023-05-22T13:09:37.855Z,33.92
2023-05-22T13:12:40.439Z,33.67
2023-05-22T13:15:42.918Z,34.39
2023-05-22T13:18:46.177Z,34.26
2023-05-22T13:21:48.471Z,34.43
2023-05-22T13:24:51.097Z,34.62
2023-05-22T13:27:53.645Z,34.53
2023-05-22T13:30:56.537Z,34.16
2023-05-22T13:34:00.423Z,34.12
2023-05-22T13:37:04.864Z,33.26
2023-05-22T13:40:07.391Z,33.66
2023-05-22T13:43:09.643Z,33.52
2023-05-22T13:46:11.906Z,33.28
2023-05-22T13:49:14.201Z,33.17
2023-05-22T13:52:16.506Z,33.02
2023-05-22T13:55:18.856Z,33.08
2023-05-22T13:58:21.131Z,33.64
2023-05-22T14:01:23.546Z,34.21
2023-05-22T14:04:25.844Z,34.78
2023-05-22T14:07:30.983Z,34.82
2023-05-22T14:10:34.566Z,34.21
2023-05-22T14:13:36.900Z,33.38
2023-05-22T14:16:39.544Z,34.23
2023-05-22T14:19:41.926Z,34.21
2023-05-22T14:22:56.419Z,33.98
2023-05-22T14:26:00.329Z,34.66
2023-05-22T14:29:02.617Z,35.07
2023-05-22T14:32:05.532Z,34.48
2023-05-22T14:35:08.223Z,34.50
2023-05-22T14:38:10.541Z,34.77
2023-05-22T14:41:13.074Z,33.75
2023-05-22T14:44:15.546Z,34.25
2023-05-22T14:47:17.734Z,34.75
2023-05-22T14:50:20.991Z,34.47
2023-05-22T14:53:23.445Z,34.53
2023-05-22T14:56:26.643Z,34.47
2023-05-22T14:59:28.985Z,34.30
2023-05-22T15:02:31.280Z,34.93
2023-05-22T15:05:33.626Z,35.18
2023-05-22T15:08:36.738Z,34.70
2023-05-22T15:11:39.073Z,35.13
2023-05-22T15:14:41.549Z,34.55
2023-05-22T15:17:43.948Z,34.86
2023-05-22T15:20:46.201Z,34.79
2023-05-22T15:23:48.468Z,35.18
2023-05-22T15:26:50.707Z,34.92
2023-05-22T15:29:52.953Z,35.71
2023-05-22T15:32:55.311Z,36.34
2023-05-22T15:35:57.566Z,35.24
2023-05-22T15:38:59.821Z,35.40
2023-05-22T15:42:06.419Z,35.82
2023-05-22T15:45:09.361Z,35.26
2023-05-22T15:48:12.467Z,35.24
2023-05-22T15:51:14.838Z,35.43
2023-05-22T15:54:17.159Z,35.91
2023-05-22T15:57:19.638Z,36.05
2023-05-22T16:00:21.977Z,35.88
2023-05-22T16:03:24.392Z,35.86
2023-05-22T16:06:27.450Z,36.15
2023-05-22T16:09:31.377Z,35.46
2023-05-22T16:12:34.914Z,35.71
2023-05-22T16:15:39.802Z,36.01
2023-05-22T16:18:42.470Z,36.22
2023-05-22T16:21:45.005Z,36.38
2023-05-22T16:24:47.692Z,35.99
2023-05-22T16:27:49.931Z,36.28
2023-05-22T16:30:52.230Z,36.76
2023-05-22T16:33:54.634Z,37.08
2023-05-22T16:36:56.918Z,36.60
2023-05-22T16:39:59.174Z,37.09
2023-05-22T16:43:01.502Z,37.32
2023-05-22T16:46:04.113Z,37.17
2023-05-22T16:49:06.493Z,37.21
2023-05-22T16:52:09.147Z,37.10
2023-05-22T16:55:11.452Z,37.09
2023-05-22T16:58:14.023Z,37.55
2023-05-22T17:01:16.569Z,38.15
2023-05-22T17:04:20.697Z,38.29
2023-05-22T17:07:23.479Z,38.21
2023-05-22T17:10:25.901Z,37.95
2023-05-22T17:13:28.037Z,39.11
2023-05-22T17:16:30.940Z,38.37
2023-05-22T17:19:33.390Z,38.50
2023-05-22T17:22:37.390Z,38.09
2023-05-22T17:25:39.920Z,38.23
2023-05-22T17:28:42.435Z,37.85
2023-05-22T17:31:44.704Z,38.29
2023-05-22T17:34:47.103Z,39.55
2023-05-22T17:37:49.554Z,39.51
2023-05-22T17:40:54.615Z,39.76
2023-05-22T17:43:57.586Z,40.29
2023-05-22T17:47:00.147Z,40.19
2023-05-22T17:50:02.643Z,40.08
2023-05-22T17:53:04.850Z,39.99
2023-05-22T17:56:07.167Z,40.07
2023-05-22T17:59:09.463Z,40.75
2023-05-22T18:02:11.823Z,39.80
2023-05-22T18:05:14.164Z,40.22
2023-05-22T18:08:17.328Z,40.05
2023-05-22T18:11:19.687Z,41.34
2023-05-22T18:14:21.989Z,42.87
2023-05-22T18:17:24.363Z,42.77
2023-05-22T18:20:27.107Z,42.35
2023-05-22T18:23:29.407Z,43.08
2023-05-22T18:26:31.742Z,43.30
2023-05-22T18:29:34.008Z,43.66
2023-05-22T18:32:36.973Z,43.85
2023-05-22T18:35:39.320Z,43.28
2023-05-22T18:38:41.860Z,43.10
2023-05-22T18:41:44.038Z,43.30
2023-05-22T18:44:48.706Z,43.50
2023-05-22T18:47:51.405Z,43.99
2023-05-22T18:50:54.275Z,44.06
2023-05-22T18:53:57.131Z,44.52
2023-05-22T18:56:59.403Z,44.27
2023-05-22T19:00:01.720Z,44.79
2023-05-22T19:03:04.429Z,45.05
2023-05-22T19:06:07.078Z,44.77
2023-05-22T19:09:12.548Z,44.67
2023-05-22T19:12:14.870Z,45.36
2023-05-22T19:15:17.210Z,45.29
2023-05-22T19:18:19.487Z,45.41
2023-05-22T19:21:22.552Z,45.66
2023-05-22T19:24:26.356Z,45.20
2023-05-22T19:27:28.627Z,45.68
2023-05-22T19:30:30.878Z,46.43
2023-05-22T19:33:33.762Z,46.31
2023-05-22T19:36:36.302Z,46.19
2023-05-22T19:39:38.743Z,46.18
2023-05-22T19:42:41.496Z,45.86
2023-05-22T19:45:45.253Z,47.33
2023-05-22T19:48:47.534Z,47.27
2023-05-22T19:51:49.877Z,47.16
2023-05-22T19:54:52.479Z,48.05
2023-05-22T19:57:54.949Z,48.42
2023-05-22T20:00:57.267Z,48.74
2023-05-22T20:04:01.050Z,47.99
2023-05-22T20:07:04.255Z,48.77
2023-05-22T20:10:07.078Z,48.81
2023-05-22T20:13:09.394Z,48.76
2023-05-22T20:16:12.621Z,49.66
2023-05-22T20:19:15.017Z,49.70
2023-05-22T20:22:17.556Z,50.04
2023-05-22T20:25:21.287Z,49.97
2023-05-22T20:28:23.537Z,50.23
2023-05-22T20:31:25.972Z,50.05
2023-05-22T20:34:28.916Z,50.32
2023-05-22T20:37:34.864Z,50.35
2023-05-22T20:40:37.773Z,50.34
2023-05-22T20:43:43.286Z,50.55
2023-05-22T20:46:45.822Z,50.52
2023-05-22T20:49:48.150Z,49.25
2023-05-22T20:52:50.561Z,49.52
2023-05-22T20:55:53.343Z,49.77
2023-05-22T20:58:56.274Z,50.48
2023-05-22T21:01:58.629Z,50.44
2023-05-22T21:05:01.004Z,51.21
2023-05-22T21:08:03.348Z,51.56
2023-05-22T21:11:07.324Z,51.37
2023-05-22T21:14:09.627Z,51.62
2023-05-22T21:17:12.009Z,51.40
2023-05-22T21:20:14.476Z,52.27
2023-05-22T21:23:16.896Z,52.03
2023-05-22T21:26:22.272Z,51.87
2023-05-22T21:29:24.835Z,51.70
2023-05-22T21:32:27.089Z,51.84
2023-05-22T21:35:29.429Z,51.75
2023-05-22T21:38:31.764Z,52.09
2023-05-22T21:41:34.146Z,52.23
2023-05-22T21:44:37.461Z,52.53
2023-05-22T21:47:39.770Z,52.92
2023-05-22T21:50:42.374Z,52.99
2023-05-22T21:53:44.580Z,53.38
2023-05-22T21:56:46.835Z,53.46
2023-05-22T21:59:50.838Z,53.63
2023-05-22T22:02:53.306Z,53.65
2023-05-22T22:05:55.621Z,54.44
2023-05-22T22:08:59.784Z,55.01
2023-05-22T22:12:02.088Z,55.25
2023-05-22T22:15:04.733Z,55.61
2023-05-22T22:18:06.860Z,55.42
2023-05-22T22:21:09.055Z,56.01
2023-05-22T22:24:11.712Z,56.12
2023-05-22T22:27:13.921Z,56.27
2023-05-22T22:30:16.359Z,56.26
2023-05-22T22:33:18.697Z,56.30
2023-05-22T22:36:21.303Z,56.55
2023-05-22T22:39:23.639Z,56.68
2023-05-22T22:42:26.679Z,57.21
2023-05-22T22:45:28.987Z,57.30
2023-05-22T22:48:31.243Z,57.50
2023-05-22T22:51:34.544Z,57.73
2023-05-22T22:54:37.006Z,57.56
2023-05-22T22:57:39.316Z,57.72
2023-05-22T23:00:41.906Z,57.98
2023-05-22T23:03:44.065Z,58.26
2023-05-22T23:06:46.285Z,58.29
2023-05-22T23:09:48.537Z,58.12
2023-05-22T23:12:50.909Z,57.96
2023-05-22T23:15:53.432Z,57.90
2023-05-22T23:18:55.773Z,58.08
2023-05-22T23:21:58.044Z,58.10
2023-05-22T23:25:00.420Z,58.44
2023-05-22T23:28:02.703Z,58.45
2023-05-22T23:31:05.041Z,58.03
2023-05-22T23:34:07.312Z,58.18
2023-05-22T23:37:09.778Z,58.34
2023-05-22T23:40:12.493Z,58.47
2023-05-22T23:43:14.640Z,58.23
2023-05-22T23:46:16.875Z,58.71
2023-05-22T23:49:19.126Z,58.92
2023-05-22T23:52:22.165Z,58.76
2023-05-22T23:55:24.496Z,59.15
2023-05-22T23:58:29.363Z,59.25
